Time;durP1;ratioP1;P1;durP2;ratioP2;P2;SDS_P1;SDS_P2;PMS_P1;PMS_P2;Temp;Humidity;BMP_temperature;BMP_pressure;BME280_temperature;BME280_humidity;BME280_pressure;Samples;Min_cycle;Max_cycle;Signal;HPM_P1;HPM_P2
2021/05/07 00:01:22;;;;;;;14.52;7.05;;;;;;;;;;5004120;28;20054;-54
2021/05/07 00:03:51;;;;;;;10.13;6.72;;;;;;;;;;5009225;28;20053;-51
2021/05/07 00:06:17;;;;;;;12.32;7.50;;;;;;;;;;5000119;28;20053;-53
2021/05/07 00:08:43;;;;;;;12.05;7.32;;;;;;;;;;4987656;28;20050;-57
2021/05/07 00:11:14;;;;;;;11.10;6.68;;;;;;;;;;4987024;28;20149;-56
2021/05/07 00:13:40;;;;;;;13.43;7.30;;;;;;;;;;4981035;28;20522;-54
2021/05/07 00:16:06;;;;;;;14.23;7.40;;;;;;;;;;4982019;28;20153;-55
2021/05/07 00:18:34;;;;;;;10.32;6.82;;;;;;;;;;4986556;28;20050;-55
2021/05/07 00:21:01;;;;;;;14.63;7.55;;;;;;;;;;4979080;28;20039;-55
2021/05/07 00:23:27;;;;;;;32.33;8.95;;;;;;;;;;4984664;28;20042;-52
2021/05/07 00:25:53;;;;;;;13.50;7.68;;;;;;;;;;4987560;28;20038;-53
2021/05/07 00:28:20;;;;;;;13.50;7.47;;;;;;;;;;4987455;28;20061;-56
2021/05/07 00:30:46;;;;;;;9.32;5.65;;;;;;;;;;4979349;28;20409;-55
2021/05/07 00:33:13;;;;;;;11.07;7.45;;;;;;;;;;4984525;28;20050;-55
2021/05/07 00:35:39;;;;;;;13.15;7.38;;;;;;;;;;4984009;28;20538;-54
2021/05/07 00:38:05;;;;;;;12.57;7.60;;;;;;;;;;4983661;28;20050;-56
2021/05/07 00:40:32;;;;;;;15.93;7.70;;;;;;;;;;4985385;28;20058;-54
2021/05/07 00:42:59;;;;;;;16.08;8.18;;;;;;;;;;4979999;28;20051;-56
2021/05/07 00:45:27;;;;;;;14.40;8.35;;;;;;;;;;4988335;28;20093;-56
2021/05/07 00:47:58;;;;;;;14.98;8.50;;;;;;;;;;4983954;28;20043;-52
2021/05/07 00:50:27;;;;;;;16.70;9.00;;;;;;;;;;4999209;28;20073;-50
2021/05/07 00:53:00;;;;;;;13.05;7.18;;;;;;;;;;4982439;28;20065;-55
2021/05/07 00:55:28;;;;;;;14.27;7.35;;;;;;;;;;4982999;28;20558;-55
2021/05/07 00:57:54;;;;;;;11.80;6.85;;;;;;;;;;4985456;28;20078;-56
2021/05/07 01:00:22;;;;;;;14.20;7.57;;;;;;;;;;4985287;28;20648;-56
2021/05/07 01:02:50;;;;;;;14.60;7.10;;;;;;;;;;4988949;28;20045;-52
2021/05/07 01:05:16;;;;;;;13.43;7.43;;;;;;;;;;4983395;28;20054;-56
2021/05/07 01:07:42;;;;;;;18.73;9.10;;;;;;;;;;4985741;28;20046;-55
2021/05/07 01:10:10;;;;;;;20.97;8.20;;;;;;;;;;4990149;28;20088;-55
2021/05/07 01:12:39;;;;;;;15.55;7.80;;;;;;;;;;4997829;28;20092;-52
2021/05/07 01:15:05;;;;;;;;;;;;;;;;;;4992967;28;20605;-54
2021/05/07 01:17:32;;;;;;;15.27;7.32;;;;;;;;;;4993007;28;20463;-56
2021/05/07 01:20:12;;;;;;;14.43;7.60;;;;;;;;;;4987196;28;20133;-52
2021/05/07 01:22:39;;;;;;;10.02;6.57;;;;;;;;;;5005013;28;20475;-55
2021/05/07 01:25:06;;;;;;;13.20;7.72;;;;;;;;;;4997822;28;20044;-54
2021/05/07 01:27:35;;;;;;;15.40;7.80;;;;;;;;;;5000159;28;20437;-55
2021/05/07 01:30:05;;;;;;;13.25;7.70;;;;;;;;;;5004069;28;20038;-55
2021/05/07 01:32:32;;;;;;;16.88;8.60;;;;;;;;;;5002691;28;20034;-55
2021/05/07 01:34:58;;;;;;;15.25;8.18;;;;;;;;;;5007217;28;20496;-53
2021/05/07 01:37:24;;;;;;;15.10;8.20;;;;;;;;;;5003126;28;20093;-56
2021/05/07 01:39:51;;;;;;;24.35;8.70;;;;;;;;;;5002195;28;20049;-56
2021/05/07 01:42:17;;;;;;;18.23;8.85;;;;;;;;;;4988282;28;20557;-55
2021/05/07 01:44:44;;;;;;;21.20;10.15;;;;;;;;;;5007846;28;20129;-52
2021/05/07 01:47:10;;;;;;;19.65;10.25;;;;;;;;;;5004905;28;20577;-53
2021/05/07 01:49:40;;;;;;;13.55;6.68;;;;;;;;;;5004801;28;20240;-54
2021/05/07 01:52:07;;;;;;;21.17;9.60;;;;;;;;;;4994966;28;20048;-55
2021/05/07 01:54:34;;;;;;;21.75;9.23;;;;;;;;;;4988667;28;20033;-54
2021/05/07 01:57:00;;;;;;;17.05;8.82;;;;;;;;;;5005160;28;20060;-51
2021/05/07 01:59:27;;;;;;;16.00;8.25;;;;;;;;;;4990416;28;20417;-54
2021/05/07 02:01:53;;;;;;;19.15;9.88;;;;;;;;;;4988154;28;20157;-56
2021/05/07 02:04:19;;;;;;;19.45;8.52;;;;;;;;;;4989014;28;20049;-51
2021/05/07 02:06:47;;;;;;;21.88;10.73;;;;;;;;;;4981125;28;20043;-54
2021/05/07 02:09:15;;;;;;;22.88;10.30;;;;;;;;;;4984462;28;20138;-54
2021/05/07 02:11:41;;;;;;;18.92;10.10;;;;;;;;;;4995667;28;20506;-51
2021/05/07 02:14:08;;;;;;;22.30;9.68;;;;;;;;;;5002400;28;20092;-53
2021/05/07 02:16:34;;;;;;;21.15;10.05;;;;;;;;;;4999611;28;20037;-53
2021/05/07 02:19:02;;;;;;;21.23;9.57;;;;;;;;;;4996099;28;20050;-51
2021/05/07 02:21:29;;;;;;;18.75;9.48;;;;;;;;;;5006627;28;20406;-55
2021/05/07 02:23:57;;;;;;;26.47;9.83;;;;;;;;;;4973412;28;20040;-54
2021/05/07 02:26:24;;;;;;;21.40;10.23;;;;;;;;;;5000647;28;20538;-54
2021/05/07 02:28:55;;;;;;;18.45;9.50;;;;;;;;;;4989314;28;20033;-54
2021/05/07 02:31:24;;;;;;;18.67;9.00;;;;;;;;;;5001183;28;20101;-53
2021/05/07 02:33:51;;;;;;;15.30;8.82;;;;;;;;;;4991702;28;20075;-54
2021/05/07 02:36:18;;;;;;;12.45;6.97;;;;;;;;;;4986405;28;20042;-54
2021/05/07 02:38:45;;;;;;;15.35;7.15;;;;;;;;;;4989549;28;20038;-52
2021/05/07 02:41:11;;;;;;;17.60;8.27;;;;;;;;;;5009615;28;20044;-54
2021/05/07 02:43:41;;;;;;;18.15;8.40;;;;;;;;;;5007252;28;20045;-55
2021/05/07 02:46:14;;;;;;;21.85;9.15;;;;;;;;;;4993513;28;20070;-55
2021/05/07 02:48:42;;;;;;;18.13;8.90;;;;;;;;;;5003549;28;20088;-56
2021/05/07 02:51:09;;;;;;;20.50;9.05;;;;;;;;;;5004074;28;20088;-52
2021/05/07 02:53:35;;;;;;;17.95;8.80;;;;;;;;;;5003830;28;20125;-54
2021/05/07 02:56:02;;;;;;;21.88;9.57;;;;;;;;;;5008674;28;20049;-53
2021/05/07 02:58:29;;;;;;;19.23;8.43;;;;;;;;;;5000942;28;20046;-53
2021/05/07 03:00:57;;;;;;;17.98;10.02;;;;;;;;;;5005136;28;20493;-54
2021/05/07 03:03:23;;;;;;;25.10;9.68;;;;;;;;;;5005413;28;20485;-52
2021/05/07 03:05:50;;;;;;;19.77;10.10;;;;;;;;;;5000382;28;20047;-53
2021/05/07 03:08:23;;;;;;;23.73;10.10;;;;;;;;;;4992866;28;20557;-54
2021/05/07 03:10:49;;;;;;;17.58;9.38;;;;;;;;;;5007337;28;20041;-55
2021/05/07 03:13:16;;;;;;;24.25;9.70;;;;;;;;;;5006583;28;20042;-52
2021/05/07 03:15:43;;;;;;;21.50;9.70;;;;;;;;;;5006182;28;20042;-55
2021/05/07 03:18:12;;;;;;;21.98;10.05;;;;;;;;;;5005100;28;20137;-52
2021/05/07 03:20:39;;;;;;;18.88;9.02;;;;;;;;;;5004647;28;20057;-55
2021/05/07 03:23:06;;;;;;;22.42;9.40;;;;;;;;;;5004997;28;20034;-54
2021/05/07 03:25:32;;;;;;;23.00;8.65;;;;;;;;;;5001800;28;20077;-55
2021/05/07 03:27:58;;;;;;;18.00;9.25;;;;;;;;;;5004213;28;20117;-51
2021/05/07 03:30:24;;;;;;;18.00;9.30;;;;;;;;;;5004841;28;20042;-54
2021/05/07 03:32:51;;;;;;;20.98;9.15;;;;;;;;;;5004655;28;20069;-50
2021/05/07 03:35:17;;;;;;;20.92;9.35;;;;;;;;;;5009035;28;20089;-53
2021/05/07 03:37:44;;;;;;;20.95;10.05;;;;;;;;;;5003182;28;20049;-53
2021/05/07 03:40:11;;;;;;;19.43;9.47;;;;;;;;;;5008515;28;20140;-52
2021/05/07 03:42:37;;;;;;;21.52;10.07;;;;;;;;;;5009814;28;20137;-53
2021/05/07 03:45:04;;;;;;;21.58;10.05;;;;;;;;;;5007374;28;20046;-52
2021/05/07 03:47:30;;;;;;;20.33;9.90;;;;;;;;;;5004333;28;20045;-54
2021/05/07 03:49:56;;;;;;;18.70;10.43;;;;;;;;;;5002328;28;20049;-55
2021/05/07 03:52:22;;;;;;;21.42;9.38;;;;;;;;;;5009042;28;20104;-55
2021/05/07 03:54:50;;;;;;;;;;;;;;;;;;5001008;28;20523;-52
2021/05/07 03:57:24;;;;;;;19.02;9.40;;;;;;;;;;5001322;28;19929;-51
2021/05/07 03:59:50;;;;;;;21.25;10.32;;;;;;;;;;5006556;28;20136;-51
2021/05/07 04:02:16;;;;;;;15.55;9.60;;;;;;;;;;5007999;28;20048;-52
2021/05/07 04:04:44;;;;;;;16.98;8.43;;;;;;;;;;5005345;28;20060;-55
2021/05/07 04:07:11;;;;;;;12.27;7.45;;;;;;;;;;5006916;28;20081;-54
2021/05/07 04:09:42;;;;;;;9.20;5.03;;;;;;;;;;5009512;28;20125;-52
2021/05/07 04:12:22;;;;;;;11.77;5.60;;;;;;;;;;5008928;28;20041;-55
2021/05/07 04:14:49;;;;;;;6.63;4.82;;;;;;;;;;5000676;28;20053;-52
2021/05/07 04:17:15;;;;;;;6.57;4.15;;;;;;;;;;4990955;28;20056;-54
2021/05/07 04:19:42;;;;;;;5.05;4.10;;;;;;;;;;5003334;28;20699;-54
2021/05/07 04:22:08;;;;;;;8.93;4.47;;;;;;;;;;5002912;28;20065;-55
2021/05/07 04:24:35;;;;;;;5.50;4.38;;;;;;;;;;5002476;28;20133;-51
2021/05/07 04:27:01;;;;;;;5.13;4.20;;;;;;;;;;5002869;28;20109;-54
2021/05/07 04:29:28;;;;;;;8.20;4.25;;;;;;;;;;5002448;28;20045;-51
2021/05/07 04:31:57;;;;;;;7.43;4.30;;;;;;;;;;5002043;28;20040;-50
2021/05/07 04:34:23;;;;;;;5.43;3.95;;;;;;;;;;5007804;28;20046;-52
2021/05/07 04:36:50;;;;;;;6.32;4.38;;;;;;;;;;5001481;28;20042;-51
2021/05/07 04:39:16;;;;;;;5.63;4.40;;;;;;;;;;5003599;28;20514;-51
2021/05/07 04:41:42;;;;;;;11.02;4.82;;;;;;;;;;5008080;28;20042;-51
2021/05/07 04:44:08;;;;;;;5.15;4.20;;;;;;;;;;5000875;28;20053;-52
2021/05/07 04:46:35;;;;;;;7.22;4.20;;;;;;;;;;5005077;28;20038;-53
2021/05/07 04:49:01;;;;;;;5.47;3.92;;;;;;;;;;5006393;28;20485;-53
2021/05/07 04:51:27;;;;;;;5.55;3.97;;;;;;;;;;5001135;28;20042;-52
2021/05/07 04:53:54;;;;;;;5.55;3.65;;;;;;;;;;5000084;28;20085;-51
2021/05/07 04:56:20;;;;;;;5.95;3.40;;;;;;;;;;5003102;28;20050;-52
2021/05/07 04:58:46;;;;;;;5.57;3.45;;;;;;;;;;5002103;28;20119;-54
2021/05/07 05:01:13;;;;;;;6.03;4.00;;;;;;;;;;5006122;28;20049;-55
2021/05/07 05:03:40;;;;;;;5.85;4.38;;;;;;;;;;5001346;28;20050;-51
2021/05/07 05:06:06;;;;;;;8.23;4.18;;;;;;;;;;5003812;28;20041;-51
2021/05/07 05:08:32;;;;;;;5.75;3.63;;;;;;;;;;5001378;28;20097;-51
2021/05/07 05:10:59;;;;;;;6.85;4.70;;;;;;;;;;5003964;28;20129;-51
2021/05/07 05:13:26;;;;;;;5.35;4.00;;;;;;;;;;5006082;28;20057;-51
2021/05/07 05:15:52;;;;;;;5.13;4.07;;;;;;;;;;5000848;28;20049;-50
2021/05/07 05:18:25;;;;;;;6.43;3.75;;;;;;;;;;5000980;28;20046;-52
2021/05/07 05:20:53;;;;;;;6.57;4.15;;;;;;;;;;5008329;28;20384;-50
2021/05/07 05:23:20;;;;;;;5.05;4.10;;;;;;;;;;5001515;28;20478;-54
2021/05/07 05:25:47;;;;;;;5.93;4.75;;;;;;;;;;5007263;28;20537;-55
2021/05/07 05:28:13;;;;;;;4.90;3.27;;;;;;;;;;5004282;28;20049;-53
2021/05/07 05:30:40;;;;;;;6.57;4.53;;;;;;;;;;4995173;28;20669;-55
2021/05/07 05:33:06;;;;;;;7.30;5.25;;;;;;;;;;5002953;28;20056;-54
2021/05/07 05:35:32;;;;;;;6.32;5.10;;;;;;;;;;5002399;28;20038;-54
2021/05/07 05:37:59;;;;;;;8.15;5.43;;;;;;;;;;5004606;28;20399;-54
2021/05/07 05:40:25;;;;;;;13.25;6.30;;;;;;;;;;4987731;28;20050;-54
2021/05/07 05:42:52;;;;;;;12.05;6.32;;;;;;;;;;5000693;28;20045;-54
2021/05/07 05:45:18;;;;;;;6.23;4.90;;;;;;;;;;5005699;28;20112;-53
2021/05/07 05:47:44;;;;;;;7.95;5.18;;;;;;;;;;5004388;28;20046;-56
2021/05/07 05:50:12;;;;;;;9.15;4.97;;;;;;;;;;5002589;28;20092;-53
2021/05/07 05:52:40;;;;;;;16.08;5.43;;;;;;;;;;5000262;28;20054;-54
2021/05/07 05:55:07;;;;;;;5.72;3.80;;;;;;;;;;5005529;28;20053;-55
2021/05/07 05:57:33;;;;;;;6.47;4.68;;;;;;;;;;5006894;28;20108;-55
2021/05/07 06:00:00;;;;;;;6.55;4.78;;;;;;;;;;5005766;28;20046;-55
2021/05/07 06:02:26;;;;;;;6.50;4.50;;;;;;;;;;5009449;28;20550;-57
2021/05/07 06:04:54;;;;;;;6.60;4.53;;;;;;;;;;5007633;28;20049;-55
2021/05/07 06:07:21;;;;;;;5.00;3.97;;;;;;;;;;5010579;28;20482;-56
2021/05/07 06:09:47;;;;;;;5.05;2.90;;;;;;;;;;5008903;28;20049;-56
2021/05/07 06:12:14;;;;;;;6.27;3.57;;;;;;;;;;5006897;28;20048;-55
2021/05/07 06:14:41;;;;;;;4.93;3.42;;;;;;;;;;5009151;28;20291;-55
2021/05/07 06:17:08;;;;;;;4.93;3.63;;;;;;;;;;5009294;28;20069;-52
2021/05/07 06:19:35;;;;;;;5.30;3.00;;;;;;;;;;5003377;28;20054;-56
2021/05/07 06:22:02;;;;;;;5.18;3.35;;;;;;;;;;5001792;28;20047;-54
2021/05/07 06:24:28;;;;;;;3.15;2.72;;;;;;;;;;5007466;28;20105;-54
2021/05/07 06:26:54;;;;;;;5.32;3.67;;;;;;;;;;5005123;28;20096;-53
2021/05/07 06:29:21;;;;;;;5.20;3.20;;;;;;;;;;5003834;28;20038;-55
2021/05/07 06:31:47;;;;;;;4.70;3.28;;;;;;;;;;5007044;28;20049;-55
2021/05/07 06:34:14;;;;;;;3.83;2.95;;;;;;;;;;4988495;28;20042;-52
2021/05/07 06:36:40;;;;;;;4.57;3.33;;;;;;;;;;5008627;28;20042;-53
2021/05/07 06:39:06;;;;;;;5.80;3.10;;;;;;;;;;5005089;28;20048;-56
2021/05/07 06:41:33;;;;;;;3.88;2.92;;;;;;;;;;5006804;28;20034;-54
2021/05/07 06:43:59;;;;;;;7.32;3.25;;;;;;;;;;5005342;28;20053;-55
2021/05/07 06:46:25;;;;;;;4.32;3.13;;;;;;;;;;5005721;28;20049;-56
2021/05/07 06:48:51;;;;;;;6.25;3.50;;;;;;;;;;5003358;28;20557;-53
2021/05/07 06:51:18;;;;;;;3.47;3.05;;;;;;;;;;5008913;28;20050;-55
2021/05/07 06:53:44;;;;;;;4.30;3.00;;;;;;;;;;5004447;28;20116;-52
2021/05/07 06:56:10;;;;;;;7.72;3.10;;;;;;;;;;5006709;28;20070;-55
2021/05/07 06:58:42;;;;;;;6.88;3.42;;;;;;;;;;5007782;28;20081;-56
2021/05/07 07:01:08;;;;;;;6.40;3.08;;;;;;;;;;5007811;28;20038;-54
2021/05/07 07:03:35;;;;;;;5.72;3.55;;;;;;;;;;5002340;28;20042;-54
2021/05/07 07:06:01;;;;;;;4.50;3.05;;;;;;;;;;5008106;28;20050;-54
2021/05/07 07:08:27;;;;;;;5.25;4.72;;;;;;;;;;5007209;28;20069;-55
2021/05/07 07:10:54;;;;;;;11.65;4.68;;;;;;;;;;5007448;28;20042;-54
2021/05/07 07:13:20;;;;;;;9.43;4.70;;;;;;;;;;5004262;28;20046;-54
2021/05/07 07:15:46;;;;;;;5.63;4.28;;;;;;;;;;5010270;28;20038;-54
2021/05/07 07:18:17;;;;;;;5.05;3.83;;;;;;;;;;4999418;28;20070;-54
2021/05/07 07:20:44;;;;;;;5.05;4.03;;;;;;;;;;5003733;28;20058;-56
2021/05/07 07:23:10;;;;;;;4.88;3.45;;;;;;;;;;5004576;28;20038;-54
2021/05/07 07:25:37;;;;;;;7.07;3.72;;;;;;;;;;5004677;28;20046;-53
2021/05/07 07:28:04;;;;;;;6.30;3.45;;;;;;;;;;4998472;28;20557;-55
2021/05/07 07:30:30;;;;;;;4.13;2.95;;;;;;;;;;4999380;28;20041;-55
2021/05/07 07:32:56;;;;;;;4.22;3.58;;;;;;;;;;5006350;28;20045;-56
2021/05/07 07:35:22;;;;;;;6.57;3.20;;;;;;;;;;5003794;28;20042;-55
2021/05/07 07:37:49;;;;;;;5.90;3.05;;;;;;;;;;5004763;28;20049;-56
2021/05/07 07:40:16;;;;;;;6.72;3.00;;;;;;;;;;5002154;28;20058;-55
2021/05/07 07:42:42;;;;;;;3.15;2.67;;;;;;;;;;5005862;28;20125;-53
2021/05/07 07:45:08;;;;;;;4.47;2.88;;;;;;;;;;5004733;28;20089;-55
2021/05/07 07:47:35;;;;;;;3.63;2.78;;;;;;;;;;5005312;28;20462;-56
2021/05/07 07:50:06;;;;;;;4.10;2.90;;;;;;;;;;5007239;28;20131;-54
2021/05/07 07:52:33;;;;;;;4.32;2.72;;;;;;;;;;5005132;28;20026;-55
2021/05/07 07:54:59;;;;;;;3.22;2.33;;;;;;;;;;5004200;28;20489;-55
2021/05/07 07:57:25;;;;;;;4.07;2.50;;;;;;;;;;5001060;28;20039;-56
2021/05/07 07:59:52;;;;;;;4.03;2.50;;;;;;;;;;5005934;28;20042;-51
2021/05/07 08:02:19;;;;;;;4.85;2.75;;;;;;;;;;5006994;28;20137;-54
2021/05/07 08:04:45;;;;;;;3.65;2.67;;;;;;;;;;5000877;28;20050;-54
2021/05/07 08:07:12;;;;;;;3.07;2.40;;;;;;;;;;4992661;28;20042;-54
2021/05/07 08:09:40;;;;;;;3.28;2.70;;;;;;;;;;4971747;28;20121;-56
2021/05/07 08:12:06;;;;;;;3.72;2.70;;;;;;;;;;4971895;28;20369;-56
2021/05/07 08:14:32;;;;;;;4.20;3.20;;;;;;;;;;4969139;28;20078;-55
2021/05/07 08:16:59;;;;;;;5.07;2.77;;;;;;;;;;4967240;28;20043;-50
2021/05/07 08:19:26;;;;;;;4.18;2.80;;;;;;;;;;4968014;28;20380;-51
2021/05/07 08:21:52;;;;;;;4.65;3.30;;;;;;;;;;4972188;28;20471;-56
2021/05/07 08:24:23;;;;;;;4.45;2.95;;;;;;;;;;4962813;28;20066;-53
2021/05/07 08:26:49;;;;;;;4.50;2.55;;;;;;;;;;4961375;28;20038;-55
2021/05/07 08:29:15;;;;;;;4.32;3.28;;;;;;;;;;4963803;28;20724;-56
2021/05/07 08:31:44;;;;;;;4.35;2.63;;;;;;;;;;4967533;28;20047;-55
2021/05/07 08:34:11;;;;;;;7.95;2.90;;;;;;;;;;4964795;28;20051;-54
2021/05/07 08:36:37;;;;;;;6.63;2.88;;;;;;;;;;4968954;28;20102;-55
2021/05/07 08:39:04;;;;;;;5.10;2.40;;;;;;;;;;4962475;28;20043;-55
2021/05/07 08:41:30;;;;;;;6.35;2.47;;;;;;;;;;4967808;28;20046;-52
2021/05/07 08:43:56;;;;;;;2.70;2.42;;;;;;;;;;4962639;28;20047;-56
2021/05/07 08:46:24;;;;;;;3.65;2.80;;;;;;;;;;4965761;28;20093;-54
2021/05/07 08:48:51;;;;;;;4.40;2.90;;;;;;;;;;4962509;28;20506;-55
2021/05/07 08:51:18;;;;;;;3.65;2.45;;;;;;;;;;4961538;28;20349;-56
2021/05/07 08:53:49;;;;;;;2.80;2.05;;;;;;;;;;4961113;28;20050;-55
2021/05/07 08:56:32;;;;;;;2.85;2.35;;;;;;;;;;4963756;28;20745;-56
2021/05/07 08:58:58;;;;;;;7.57;2.55;;;;;;;;;;4965653;28;20043;-55
2021/05/07 09:01:24;;;;;;;5.28;2.60;;;;;;;;;;4966072;28;20414;-53
2021/05/07 09:03:50;;;;;;;2.92;2.40;;;;;;;;;;4962645;28;20051;-56
2021/05/07 09:06:22;;;;;;;3.25;2.00;;;;;;;;;;4960283;28;20054;-54
2021/05/07 09:08:49;;;;;;;3.17;2.28;;;;;;;;;;4991004;28;20078;-53
2021/05/07 09:11:16;;;;;;;2.63;1.92;;;;;;;;;;5002320;28;20112;-56
2021/05/07 09:13:43;;;;;;;2.28;2.05;;;;;;;;;;5004625;28;20120;-56
2021/05/07 09:16:10;;;;;;;5.22;2.40;;;;;;;;;;5002467;28;20073;-52
2021/05/07 09:18:42;;;;;;;3.92;2.30;;;;;;;;;;5004837;28;20053;-53
2021/05/07 09:21:09;;;;;;;3.78;2.10;;;;;;;;;;5006279;28;20428;-54
2021/05/07 09:23:53;;;;;;;4.80;2.30;;;;;;;;;;5007160;28;20046;-56
2021/05/07 09:26:20;;;;;;;3.05;2.20;;;;;;;;;;5002619;28;20042;-53
2021/05/07 09:28:50;;;;;;;3.25;2.10;;;;;;;;;;5003300;28;20125;-53
2021/05/07 09:31:17;;;;;;;4.35;2.10;;;;;;;;;;5008131;28;20446;-56
2021/05/07 09:33:45;;;;;;;2.35;2.15;;;;;;;;;;5005556;28;20067;-55
2021/05/07 09:36:25;;;;;;;3.20;2.15;;;;;;;;;;5008879;28;20072;-52
2021/05/07 09:38:51;;;;;;;2.05;1.85;;;;;;;;;;5006945;28;20089;-55
2021/05/07 09:41:38;;;;;;;2.70;2.35;;;;;;;;;;5009936;28;20048;-57
2021/05/07 09:44:15;;;;;;;4.03;2.17;;;;;;;;;;5012227;28;20073;-56
2021/05/07 09:46:41;;;;;;;2.88;2.20;;;;;;;;;;5004879;28;20079;-56
2021/05/07 09:49:08;;;;;;;4.18;2.17;;;;;;;;;;5010908;28;20041;-54
2021/05/07 09:51:48;;;;;;;3.67;2.15;;;;;;;;;;5006662;28;20042;-57
2021/05/07 09:54:15;;;;;;;2.40;2.20;;;;;;;;;;5004183;28;20042;-56
2021/05/07 09:56:41;;;;;;;3.55;2.20;;;;;;;;;;4994677;28;20458;-56
2021/05/07 09:59:08;;;;;;;2.38;2.00;;;;;;;;;;5007797;28;20046;-55
2021/05/07 10:01:35;;;;;;;4.68;2.40;;;;;;;;;;5009303;28;20103;-54
2021/05/07 10:04:03;;;;;;;3.63;2.42;;;;;;;;;;5007810;28;20391;-54
2021/05/07 10:06:31;;;;;;;;;;;;;;;;;;5009496;28;20042;-56
2021/05/07 10:08:57;;;;;;;6.87;2.40;;;;;;;;;;5007576;28;19921;-53
2021/05/07 10:11:24;;;;;;;4.75;2.78;;;;;;;;;;5004811;28;20046;-56
2021/05/07 10:13:51;;;;;;;8.90;3.20;;;;;;;;;;4999072;28;20042;-53
2021/05/07 10:16:28;;;;;;;4.97;3.35;;;;;;;;;;5003327;28;20046;-56
2021/05/07 10:19:02;;;;;;;4.15;2.20;;;;;;;;;;5008955;28;20049;-56
2021/05/07 10:21:43;;;;;;;5.38;2.55;;;;;;;;;;4991908;28;20429;-57
2021/05/07 10:24:10;;;;;;;3.28;2.00;;;;;;;;;;4989401;28;20069;-56
2021/05/07 10:26:41;;;;;;;3.58;2.15;;;;;;;;;;5005558;28;20048;-54
2021/05/07 10:29:18;;;;;;;3.13;2.20;;;;;;;;;;5012251;28;20387;-55
2021/05/07 10:31:46;;;;;;;2.88;2.20;;;;;;;;;;5003734;28;20050;-54
2021/05/07 10:34:12;;;;;;;;;;;;;;;;;;5010735;28;20065;-56
2021/05/07 10:36:55;;;;;;;2.50;2.30;;;;;;;;;;5005818;28;19921;-53
2021/05/07 10:39:22;;;;;;;2.83;2.40;;;;;;;;;;5008771;28;20080;-54
2021/05/07 10:41:49;;;;;;;4.35;2.72;;;;;;;;;;5007202;28;20406;-54
2021/05/07 10:44:16;;;;;;;2.80;2.30;;;;;;;;;;5006100;28;20407;-51
2021/05/07 10:46:43;;;;;;;3.50;2.08;;;;;;;;;;5005165;28;20122;-52
2021/05/07 10:49:10;;;;;;;3.97;2.08;;;;;;;;;;5007556;28;20117;-56
2021/05/07 10:51:36;;;;;;;2.78;2.28;;;;;;;;;;4985814;28;20096;-54
2021/05/07 10:54:11;;;;;;;3.22;2.50;;;;;;;;;;5006161;28;20046;-55
2021/05/07 10:56:39;;;;;;;4.45;2.38;;;;;;;;;;5006498;28;20100;-54
2021/05/07 10:59:05;;;;;;;;;;;;;;;;;;5009676;28;20042;-55
2021/05/07 11:01:32;;;;;;;3.45;2.55;;;;;;;;;;5001448;28;20396;-54
2021/05/07 11:03:59;;;;;;;4.55;2.60;;;;;;;;;;5005023;28;20083;-53
2021/05/07 11:06:30;;;;;;;2.60;2.40;;;;;;;;;;5004186;28;20034;-53
2021/05/07 11:09:14;;;;;;;2.88;2.50;;;;;;;;;;4998791;28;20057;-53
2021/05/07 11:11:40;;;;;;;3.65;2.88;;;;;;;;;;5008498;28;20046;-53
2021/05/07 11:14:08;;;;;;;3.95;2.83;;;;;;;;;;5006471;28;20054;-55
2021/05/07 11:16:42;;;;;;;4.10;2.40;;;;;;;;;;5005416;28;20042;-53
2021/05/07 11:19:25;;;;;;;3.03;2.63;;;;;;;;;;5008586;28;20069;-55
2021/05/07 11:21:52;;;;;;;4.38;2.97;;;;;;;;;;5003857;28;20050;-56
2021/05/07 11:24:23;;;;;;;3.80;2.67;;;;;;;;;;5004973;28;20070;-53
2021/05/07 11:26:50;;;;;;;3.08;2.60;;;;;;;;;;5002065;28;20053;-55
2021/05/07 11:29:25;;;;;;;4.18;3.13;;;;;;;;;;4999684;28;20041;-55
2021/05/07 11:31:52;;;;;;;4.70;2.60;;;;;;;;;;5002227;28;20041;-56
2021/05/07 11:34:26;;;;;;;5.22;2.83;;;;;;;;;;5007162;28;20133;-56
2021/05/07 11:36:59;;;;;;;6.53;2.97;;;;;;;;;;5005218;28;20042;-52
2021/05/07 11:39:27;;;;;;;5.00;3.10;;;;;;;;;;5003909;28;20142;-53
2021/05/07 11:41:53;;;;;;;4.50;3.35;;;;;;;;;;5006100;28;20481;-55
2021/05/07 11:44:19;;;;;;;5.88;3.13;;;;;;;;;;5006313;28;20054;-54
2021/05/07 11:46:55;;;;;;;4.47;2.85;;;;;;;;;;5006967;28;20503;-55
2021/05/07 11:49:22;;;;;;;3.28;2.72;;;;;;;;;;5003725;28;20483;-53
2021/05/07 11:51:48;;;;;;;4.93;2.92;;;;;;;;;;5007645;28;20042;-57
2021/05/07 11:54:15;;;;;;;4.18;3.10;;;;;;;;;;5006962;28;20050;-55
2021/05/07 11:56:41;;;;;;;4.53;3.10;;;;;;;;;;5004998;28;20096;-56
2021/05/07 11:59:07;;;;;;;8.10;3.33;;;;;;;;;;4993859;28;20041;-54
2021/05/07 12:01:34;;;;;;;5.20;3.58;;;;;;;;;;5004159;28;20030;-57
2021/05/07 12:04:02;;;;;;;3.80;3.20;;;;;;;;;;5004773;28;20050;-53
2021/05/07 12:06:29;;;;;;;4.88;3.63;;;;;;;;;;4999439;28;20042;-53
2021/05/07 12:09:08;;;;;;;4.70;3.65;;;;;;;;;;5002124;28;20084;-56
2021/05/07 12:11:38;;;;;;;5.22;3.15;;;;;;;;;;5003400;28;20366;-54
2021/05/07 12:14:12;;;;;;;4.53;3.33;;;;;;;;;;5006390;28;20068;-55
2021/05/07 12:16:40;;;;;;;5.07;3.40;;;;;;;;;;5006864;28;20042;-53
2021/05/07 12:19:07;;;;;;;4.00;3.40;;;;;;;;;;5001058;28;20054;-56
2021/05/07 12:21:42;;;;;;;6.75;3.80;;;;;;;;;;5004004;28;20587;-54
2021/05/07 12:24:11;;;;;;;5.03;3.72;;;;;;;;;;5006385;28;20046;-49
2021/05/07 12:26:48;;;;;;;6.72;3.72;;;;;;;;;;4997279;28;20165;-48
2021/05/07 12:29:16;;;;;;;4.57;3.33;;;;;;;;;;5003664;28;20112;-52
2021/05/07 12:31:43;;;;;;;6.20;3.97;;;;;;;;;;5005599;28;20050;-47
2021/05/07 12:34:16;;;;;;;4.40;3.60;;;;;;;;;;5007409;28;20065;-49
2021/05/07 12:36:43;;;;;;;6.03;4.75;;;;;;;;;;5010103;28;20057;-48
2021/05/07 12:39:14;;;;;;;5.27;4.13;;;;;;;;;;5007094;28;20412;-52
2021/05/07 12:41:40;;;;;;;7.53;4.40;;;;;;;;;;5006700;28;20281;-52
2021/05/07 12:44:13;;;;;;;6.75;3.40;;;;;;;;;;5006229;28;20046;-53
2021/05/07 12:46:39;;;;;;;4.88;3.70;;;;;;;;;;5006943;28;20112;-51
2021/05/07 12:49:05;;;;;;;4.97;4.47;;;;;;;;;;5003961;28;20044;-53
2021/05/07 12:51:32;;;;;;;5.60;3.47;;;;;;;;;;5004131;28;20553;-52
2021/05/07 12:53:58;;;;;;;5.13;3.53;;;;;;;;;;5009215;28;20136;-51
2021/05/07 12:56:24;;;;;;;7.80;3.67;;;;;;;;;;4999826;28;20046;-54
2021/05/07 12:58:52;;;;;;;10.13;3.58;;;;;;;;;;5000996;28;20052;-52
2021/05/07 13:01:19;;;;;;;4.53;3.30;;;;;;;;;;5006117;28;20042;-53
2021/05/07 13:03:45;;;;;;;3.67;2.80;;;;;;;;;;5001623;28;20036;-50
2021/05/07 13:06:11;;;;;;;4.43;3.67;;;;;;;;;;5001935;28;20389;-51
2021/05/07 13:08:37;;;;;;;5.10;3.45;;;;;;;;;;5002670;28;20054;-50
2021/05/07 13:11:04;;;;;;;5.28;3.47;;;;;;;;;;5006460;28;20104;-53
2021/05/07 13:13:30;;;;;;;4.40;3.38;;;;;;;;;;4999182;28;20080;-51
2021/05/07 13:15:56;;;;;;;4.32;3.08;;;;;;;;;;5005574;28;20046;-52
2021/05/07 13:18:23;;;;;;;5.68;2.85;;;;;;;;;;5004411;28;20107;-50
2021/05/07 13:20:49;;;;;;;3.88;3.00;;;;;;;;;;5004170;28;20439;-50
2021/05/07 13:23:19;;;;;;;4.70;3.00;;;;;;;;;;5004217;28;20084;-51
2021/05/07 13:25:45;;;;;;;5.15;3.55;;;;;;;;;;5004885;28;20042;-48
2021/05/07 13:28:11;;;;;;;9.52;3.53;;;;;;;;;;5003828;28;20038;-51
2021/05/07 13:30:38;;;;;;;5.40;2.95;;;;;;;;;;5007040;28;20125;-53
2021/05/07 13:33:04;;;;;;;3.60;2.70;;;;;;;;;;5006971;28;20041;-53
2021/05/07 13:35:31;;;;;;;2.63;2.42;;;;;;;;;;4990905;28;20113;-50
2021/05/07 13:37:57;;;;;;;2.50;2.10;;;;;;;;;;5004207;28;20038;-52
2021/05/07 13:40:24;;;;;;;2.03;1.80;;;;;;;;;;4999338;28;20058;-52
2021/05/07 13:42:55;;;;;;;3.03;2.10;;;;;;;;;;4992521;28;20533;-54
2021/05/07 13:45:21;;;;;;;1.90;1.70;;;;;;;;;;5001917;28;20124;-52
2021/05/07 13:47:48;;;;;;;3.35;2.17;;;;;;;;;;5001363;28;20038;-54
2021/05/07 13:50:24;;;;;;;3.50;1.80;;;;;;;;;;5000595;28;20050;-55
2021/05/07 13:52:51;;;;;;;4.43;2.00;;;;;;;;;;5001725;28;20449;-49
2021/05/07 13:55:17;;;;;;;2.03;1.73;;;;;;;;;;5003818;28;20294;-53
2021/05/07 13:57:43;;;;;;;3.20;1.77;;;;;;;;;;5001433;28;20125;-51
2021/05/07 14:00:11;;;;;;;4.60;2.45;;;;;;;;;;5000549;28;20498;-52
2021/05/07 14:02:38;;;;;;;2.35;2.00;;;;;;;;;;5000400;28;20041;-54
2021/05/07 14:05:05;;;;;;;5.38;1.90;;;;;;;;;;5003081;28;20152;-53
2021/05/07 14:07:31;;;;;;;3.13;2.40;;;;;;;;;;5005188;28;20482;-54
2021/05/07 14:09:58;;;;;;;2.35;1.95;;;;;;;;;;5004098;28;20121;-51
2021/05/07 14:12:24;;;;;;;3.55;2.40;;;;;;;;;;4996669;28;20089;-50
2021/05/07 14:14:51;;;;;;;2.22;2.00;;;;;;;;;;5006698;28;20058;-55
2021/05/07 14:17:17;;;;;;;2.45;2.00;;;;;;;;;;5003473;28;20050;-54
2021/05/07 14:19:44;;;;;;;3.05;2.28;;;;;;;;;;5007372;28;20057;-54
2021/05/07 14:22:10;;;;;;;2.60;2.33;;;;;;;;;;5005416;28;20046;-52
2021/05/07 14:24:37;;;;;;;3.30;2.07;;;;;;;;;;4993706;28;20486;-54
2021/05/07 14:27:04;;;;;;;4.57;2.25;;;;;;;;;;5004043;28;20035;-51
2021/05/07 14:29:30;;;;;;;3.53;2.38;;;;;;;;;;5005041;28;20140;-55
2021/05/07 14:31:56;;;;;;;4.22;2.15;;;;;;;;;;5002492;28;20052;-54
2021/05/07 14:34:24;;;;;;;2.65;2.33;;;;;;;;;;5001749;28;20053;-56
2021/05/07 14:36:50;;;;;;;4.70;2.33;;;;;;;;;;5008576;28;20102;-52
2021/05/07 14:39:17;;;;;;;7.78;2.40;;;;;;;;;;5004376;28;20077;-55
2021/05/07 14:41:44;;;;;;;3.08;2.40;;;;;;;;;;5001139;28;20061;-55
2021/05/07 14:44:10;;;;;;;3.47;2.33;;;;;;;;;;5006187;28;20085;-56